Przejdź do zawartości
Wszystkie wydarzenia
sierpnia 21, 2026

Wyniki: DZIKI WEEKEND 2026

strona biegu
Na mecie 346
Dystans 7.50 km
Zwycięzca 0:53:41
Mediana 2:03:24
M-ce Nr Zawodnik Kategoria Klub Miejscowość Czas Tempo
18 Ewelina Budynek-Padusińska K-40 / 1 FUZJA PYRZYCE Pyrzyce 1:03:31 8:28/km
1 434 Damian Kabat M-30 / 1 12 BRYGADA ZMECHANIZOWANA Stargard 0:53:41 7:09/km
2 354 Andrzej Kuber M-30 / 2 16 BZMOT Olsztyn 0:55:02 7:20/km
3 404 Krzysztof Waszak M-30 / 3 12 BRYGADA ZMECHANIZOWANA Mierzyn 0:56:19 7:30/km
4 15 Marek Borek M-16 / 1 Maszewo 0:59:59 7:59/km
5 407 Tomasz Wojciechowski M-30 / 4 Szczecin 1:00:18 8:02/km
6 301 Mateusz Apiecionek M-30 / 5 PATOKUNDLE Police 1:02:34 8:20/km
7 340 Bartosz Kicziński M-40 / 1 16 BZMOT Załuski 1:02:42 8:21/km
8 120 Mariusz Mleczko M-30 / 6 PLASTMOROZ Białogard 1:02:57 8:23/km
9 386 Arkadiusz Rostkowski M-30 / 7 16 BZMOT Żelazno 1:03:13 8:25/km
10 365 Mariusz Mirek M-40 / 2 HELL'S HEAVEN SZCZECIN Szczecin 1:06:08 8:49/km
11 323 Andrzej Grzelak M-40 / 3 KWP SZCZECIN Sokoliniec 1:06:13 8:49/km
12 410 Maciej Wójcik M-30 / 8 Wiechowo 1:06:49 8:54/km
13 305 Radosław Bogusz M-30 / 9 16 BZMOT Żelazno 1:06:50 8:54/km
14 376 Damian Olejarz M-30 / 10 POL-BUD POLICE Police 1:06:57 8:55/km
15 393 Marcin Szulc M-40 / 4 BOLI BOLI Police 1:07:15 8:58/km
16 406 Sebastian Wilento M-30 / 11 Szczecin 1:07:46 9:02/km
17 359 Jakub Loba M-16 / 2 SKB DZIK POLICE Żydowo 1:08:25 9:07/km
18 321 Tomasz Gołębiewski M-40 / 5 STRAŻ POŻARNA Szczecin 1:08:36 9:08/km
19 401 Przemysław Ustianowski M-50 / 1 14 ZBOT Szczecin 1:08:39 9:09/km
20 326 Leszek Hołyński M-30 / 12 STRAŻ POŻARNA Przecław 1:09:08 9:13/km
21 347 Natalia Kowalska K-30 / 1 SPRAWNI NA 5 Kraków 1:09:51 9:18/km
22 431 Edyta Dydek K-30 / 2 14 ZBOT Szczecin 1:10:39 9:25/km
23 378 Artur Pietruszka M-40 / 6 KWP SZCZECIN Szczecin 1:11:04 9:28/km
24 62 Aneta Kawka K-40 / 1 Baniewic 1:11:05 9:28/km
25 375 Wojciech Okpis M-40 / 7 SPRAWNI NA 5 Gdynia 1:11:08 9:29/km
26 165 Bartek Rafalski M-40 / 8 KWP SZCZECIN Szczecin 1:11:28 9:31/km
27 74 Michał Kowalski M-30 / 13 KP PSP SŁAWNO Tychowo 1:11:39 9:33/km
28 98 Tomasz Ludew M-30 / 14 TYMCIO TEAM Police 1:12:17 9:38/km
29 203 Marcin Wers M-30 / 15 KP PSP SŁAWNO Pękanino 1:12:42 9:41/km
30 60 Dominik Karpała M-30 / 16 HELL'S HEAVEN SZCZECIN Szczecin 1:13:41 9:49/km
31 109 Karolina Marzec K-40 / 2 15 LUBUSKA BRYGADA OBRONY TERYTORIALNEJ Deszczno 1:13:54 9:51/km
32 166 Kamil Rusin M-30 / 17 15 LUBUSKA BRYGADA OBRONY TERYTORIALNEJ Brzozowiec 1:14:12 9:53/km
33 415 Darek Zelek M-50 / 2 Police 1:15:02 10:00/km
34 112 Mariusz Matusiak M-40 / 9 HELL'S HEAVEN SZCZECIN Szczecin 1:15:17 10:02/km
35 324 Piotr Hałgas M-30 / 18 PATOKUNDLE Tanowo 1:15:48 10:06/km
36 339 Adrian Kapłaniak M-40 / 10 12 BRYGADA ZMECHANIZOWANA Szczecin 1:16:59 10:15/km
37 302 Marcin Auguścik M-30 / 19 KWP SZCZECIN Szczecin 1:17:53 10:23/km
38 100 Anna Madrak K-50 / 1 KWP SZCZECIN Police 1:19:09 10:33/km
39 425 Katarzyna Wierzbicka K-30 / 3 NORTH GYM Szczecin 1:19:09 10:33/km
40 373 Marcel Nowicki M-16 / 3 Myślibórz 1:19:27 10:35/km
41 430 Arkadiusz Dydek M-30 / 20 14 ZBOT 1:19:48 10:38/km
42 134 Piotr Oleszczak M-16 / 4 Gryfice 1:19:57 10:39/km
43 400 Tomasz Urbański M-50 / 3 BIAŁOGARD BIEGA Białogard 1:20:31 10:44/km
44 210 Marcin Wołk M-40 / 11 Myślibórz 1:21:04 10:48/km
45 91 Tomasz Kwiatkowski M-30 / 21 Police 1:21:06 10:48/km
46 137 Symon Pakos M-16 / 5 KP PSP SŁAWNO Sławno 1:21:28 10:51/km
47 316 Robert Galicki M-50 / 4 Bobolice 1:22:13 10:57/km
48 379 Mariusz Popczyk M-30 / 22 Police 1:22:34 11:00/km
49 377 Dawid Paradziński M-16 / 6 OCR NOWOGARD Nowogard 1:22:34 11:00/km
50 40 Szymon Gietko M-16 / 7 MIĘTUSY Szczecin 1:22:45 11:02/km
51 364 Marcel Miczałowski M-40 / 12 Szczecin 1:23:02 11:04/km
52 169 Julia Rykała K-16 / 1 HELENKA TEAM Police 1:23:29 11:07/km
53 167 Krzysztof Rykała M-40 / 13 HELENKA TEAM Police 1:23:30 11:08/km
54 361 Mikalai Malyhin M-40 / 14 Szczecin 1:23:34 11:08/km
55 66 Tomasz Klonowski M-40 / 15 Szczecin 1:24:32 11:16/km
56 851 Ignacy Krent Drużyna / 1 HELL’S HEAVEN SZCZECIN Szczecin 1:24:52 11:19/km
57 329 Damian Humaj M-16 / 8 DIRTY TIGERS Inowrocław 1:25:04 11:20/km
58 123 Roksana Mosiewicz K-16 / 2 Szczecin 1:25:47 11:26/km
59 198 Michał Trzciniecki M-16 / 9 Szczecin 1:25:49 11:26/km
60 331 Sebastian Jadczak M-30 / 23 OTAKU Police 1:25:53 11:27/km
61 209 Wacław Wojnowski M-30 / 24 Kiszkowo 1:26:23 11:31/km
62 118 Janusz Mickiewicz M-40 / 16 Karsko 1:27:06 11:36/km
63 28 Bartosz Dębicki M-30 / 25 ODDZIAŁ PREWENCJI POLICJI W SZCZECINIE Szczecin 1:28:51 11:50/km
64 29 Bartosz Dobiszewski M-16 / 10 ODDZIAŁ PREWENCJI POLICJI W SZCZECINIE Szczecin 1:28:51 11:50/km
65 433 Przemysław Miśkiw M-16 / 11 OSP TRZEBIEŻ Trzebież 1:29:29 11:55/km
66 238 Sławomir Miśkiw M-16 / 12 Trzebież 1:29:29 11:55/km
67 5 Leon Augustyniak M-16 / 13 WIEŃKOWIAKI Police 1:29:46 11:58/km
68 317 Przemysław Garbaciak M-30 / 26 1:30:15 12:02/km
69 69 Miłosz Konczalski M-16 / 14 DZIKI I DZIKSZY Szczecin 1:31:02 12:08/km
70 139 Agnieszka Pakuła K-30 / 4 Stargard 1:31:09 12:09/km
71 141 Filip Pasławski M-16 / 15 DZIKI I DZIKSZY Szczecin 1:31:11 12:09/km
72 428 Paweł Lubecki M-16 / 16 12 BZ/WSP Przelewice 1:32:51 12:22/km
73 320 Paweł Golański M-30 / 27 1312 Nordhorn 1:32:53 12:23/km
74 99 Artur Mackiewicz M-40 / 17 Szczecin 1:32:59 12:23/km
75 390 Martin Siedler M-30 / 28 Kołobrzeg 1:33:13 12:25/km
76 88 Maks Kuwik M-16 / 17 Szczecin 1:33:18 12:26/km
77 366 Adrian Misiowiec M-30 / 29 1312 Stąporków 1:33:36 12:28/km
78 343 Radosław Kłaniecki M-30 / 30 Szczecin 1:33:43 12:29/km
79 234 Daniel Marciniak M-40 / 18 Szczecin 1:34:18 12:34/km
80 233 Bartosz Marciniak M-16 / 18 Szczecin 1:34:18 12:34/km
81 89 Wojciech Kwaśniewski M-40 / 19 POLANIE PIERZCHNICA Szczecin 1:34:23 12:35/km
82 202 Bartłomiej Wasyłenko M-40 / 20 HIMALAYAS EXPLORERS Szczecin 1:34:24 12:35/km
83 41 Adam Głębocki M-30 / 31 Szczecin 1:34:26 12:35/km
84 206 Marta Winiarz K-30 / 5 FUZJA PYRZYCE Pyrzyce 1:35:22 12:43/km
85 155 Marta Piwoni K-40 / 3 FUZJA PYRZYCE Pyrzyce 1:35:27 12:43/km
86 426 Krzysztof Wojtalik M-40 / 21 12 BZ/WSP Stargard 1:35:34 12:44/km
87 382 Krzysztof Ptak M-40 / 22 Szczecin 1:35:35 12:44/km
88 427 Przemysław Wawrzyk M-40 / 23 12 BZ/WSP Stargard 1:35:35 12:44/km
89 207 Grzegorz Wiśniewski M-40 / 24 Szczecin 1:35:35 12:44/km
90 107 Telimena Markowska K-16 / 3 15 LUBUSKA BRYGADA OBRONY TERYTORIALNEJ Międzyrzecz 1:36:18 12:50/km
91 346 Artur Kos M-40 / 25 Szczecin 1:36:35 12:52/km
92 9 Karolina Bernacka-Szydlik K-40 / 4 WIEŃKOWIAKI Szczecin 1:36:36 12:52/km
93 61 Jakub Kaszyca M-30 / 32 SMT SZCZECIN Szczecin 1:37:14 12:57/km
94 53 Sebastian Jusiński M-50 / 5 21.BLT Sławoborze 1:37:37 13:01/km
95 338 Anna Jusinska K-50 / 2 21 BAZA LOTNICTWA TAKTYCZNEGO SWIDWIN Sławoborze 1:37:37 13:01/km
96 126 Kamil Nowak M-30 / 33 Przemocze 1:37:54 13:03/km
97 372 Dawid Nowek M-30 / 34 1312 Stąporków 1:39:14 13:13/km
98 396 Mateusz Szymański M-30 / 35 1312 Skarzysko -Kamienna 1:39:30 13:16/km
99 423 Wiktor Orynek M-16 / 19 1312 Skarzysko -Kamienna 1:39:36 13:16/km

Skąd te dane: wyniki pochodzą z serwisu firmy mierzącej czas i publikujemy je na podstawie prawnie uzasadnionego interesu (art. 6 ust. 1 lit. f RODO).

Nie chcesz, żeby Twój wynik był tu widoczny? Zgłoś sprzeciw — usuniemy go ze strony.